sensor_id;sensor_type;location;lat;lon;timestamp;pressure;altitude;pressure_sealevel;temperature;humidity
17936;BME280;9093;52.062;4.508;2022-08-19T00:01:15;101661.72;;;19.72;69.11
17936;BME280;9093;52.062;4.508;2022-08-19T00:03:59;101657.28;;;19.71;68.97
17936;BME280;9093;52.062;4.508;2022-08-19T00:06:41;101655.56;;;19.70;69.04
17936;BME280;9093;52.062;4.508;2022-08-19T00:09:22;101647.41;;;19.70;68.96
17936;BME280;9093;52.062;4.508;2022-08-19T00:12:02;101645.69;;;19.69;69.04
17936;BME280;9093;52.062;4.508;2022-08-19T00:14:43;101649.38;;;19.68;68.97
17936;BME280;9093;52.062;4.508;2022-08-19T00:17:23;101657.50;;;19.68;69.02
17936;BME280;9093;52.062;4.508;2022-08-19T00:20:04;101656.78;;;19.66;69.24
17936;BME280;9093;52.062;4.508;2022-08-19T00:22:44;101652.34;;;19.65;69.25
17936;BME280;9093;52.062;4.508;2022-08-19T00:25:25;101665.91;;;19.65;69.14
17936;BME280;9093;52.062;4.508;2022-08-19T00:28:05;101662.22;;;19.66;69.13
17936;BME280;9093;52.062;4.508;2022-08-19T00:30:45;101660.69;;;19.62;69.17
17936;BME280;9093;52.062;4.508;2022-08-19T00:33:26;101656.25;;;19.61;69.24
17936;BME280;9093;52.062;4.508;2022-08-19T00:36:06;101660.97;;;19.59;69.21
17936;BME280;9093;52.062;4.508;2022-08-19T00:38:47;101658.25;;;19.59;69.36
17936;BME280;9093;52.062;4.508;2022-08-19T00:41:27;101659.22;;;19.58;69.35
17936;BME280;9093;52.062;4.508;2022-08-19T00:44:12;101662.81;;;19.58;69.38
17936;BME280;9093;52.062;4.508;2022-08-19T00:46:54;101657.50;;;19.57;69.38
17936;BME280;9093;52.062;4.508;2022-08-19T00:49:36;101660.22;;;19.57;69.26
17936;BME280;9093;52.062;4.508;2022-08-19T00:52:21;101663.91;;;19.56;69.45
17936;BME280;9093;52.062;4.508;2022-08-19T00:55:03;101670.28;;;19.55;69.35
17936;BME280;9093;52.062;4.508;2022-08-19T00:57:46;101668.56;;;19.54;69.26
17936;BME280;9093;52.062;4.508;2022-08-19T01:00:28;101663.41;;;19.51;69.56
17936;BME280;9093;52.062;4.508;2022-08-19T01:03:10;101667.09;;;19.50;69.54
17936;BME280;9093;52.062;4.508;2022-08-19T01:05:50;101668.94;;;19.49;69.52
17936;BME280;9093;52.062;4.508;2022-08-19T01:08:31;101669.03;;;19.48;69.54
17936;BME280;9093;52.062;4.508;2022-08-19T01:11:12;101672.75;;;19.47;69.62
17936;BME280;9093;52.062;4.508;2022-08-19T01:13:53;101670.25;;;19.44;69.66
17936;BME280;9093;52.062;4.508;2022-08-19T01:16:33;101674.69;;;19.45;69.51
17936;BME280;9093;52.062;4.508;2022-08-19T01:19:17;101670.34;;;19.42;69.58
17936;BME280;9093;52.062;4.508;2022-08-19T01:22:02;101671.31;;;19.41;69.73
17936;BME280;9093;52.062;4.508;2022-08-19T01:24:43;101681.31;;;19.41;69.93
17936;BME280;9093;52.062;4.508;2022-08-19T01:27:23;101676.63;;;19.43;69.63
17936;BME280;9093;52.062;4.508;2022-08-19T01:30:04;101678.38;;;19.44;69.55
17936;BME280;9093;52.062;4.508;2022-08-19T01:32:45;101672.94;;;19.44;69.77
17936;BME280;9093;52.062;4.508;2022-08-19T01:35:29;101678.38;;;19.44;69.76
17936;BME280;9093;52.062;4.508;2022-08-19T01:38:18;101672.94;;;19.44;69.78
17936;BME280;9093;52.062;4.508;2022-08-19T01:40:58;101672.94;;;19.44;69.81
17936;BME280;9093;52.062;4.508;2022-08-19T01:43:39;101678.38;;;19.44;69.67
17936;BME280;9093;52.062;4.508;2022-08-19T01:46:20;101676.63;;;19.43;69.70
17936;BME280;9093;52.062;4.508;2022-08-19T01:49:01;101675.91;;;19.41;69.82
17936;BME280;9093;52.062;4.508;2022-08-19T01:51:41;101679.44;;;19.41;69.85
17936;BME280;9093;52.062;4.508;2022-08-19T01:54:22;101678.84;;;19.38;69.90
17936;BME280;9093;52.062;4.508;2022-08-19T01:57:06;101668.00;;;19.38;70.04
17936;BME280;9093;52.062;4.508;2022-08-19T01:59:47;101663.56;;;19.37;70.03
17936;BME280;9093;52.062;4.508;2022-08-19T02:02:27;101664.53;;;19.36;69.90
17936;BME280;9093;52.062;4.508;2022-08-19T02:05:07;101653.00;;;19.34;70.14
17936;BME280;9093;52.062;4.508;2022-08-19T02:07:48;101653.97;;;19.33;70.03
17936;BME280;9093;52.062;4.508;2022-08-19T02:10:28;101652.34;;;19.30;70.17
17936;BME280;9093;52.062;4.508;2022-08-19T02:13:09;101663.28;;;19.28;70.39
17936;BME280;9093;52.062;4.508;2022-08-19T02:15:49;101663.06;;;19.32;70.36
17936;BME280;9093;52.062;4.508;2022-08-19T02:18:30;101667.41;;;19.34;70.16
17936;BME280;9093;52.062;4.508;2022-08-19T02:21:10;101661.13;;;19.34;70.16
17936;BME280;9093;52.062;4.508;2022-08-19T02:23:50;101665.66;;;19.33;70.34
17936;BME280;9093;52.062;4.508;2022-08-19T02:26:31;101665.78;;;19.32;70.34
17936;BME280;9093;52.062;4.508;2022-08-19T02:29:11;101665.78;;;19.32;70.09
17936;BME280;9093;52.062;4.508;2022-08-19T02:31:52;101659.28;;;19.34;70.21
17936;BME280;9093;52.062;4.508;2022-08-19T02:34:32;101669.97;;;19.36;70.08
17936;BME280;9093;52.062;4.508;2022-08-19T02:37:12;101662.59;;;19.38;70.26
17936;BME280;9093;52.062;4.508;2022-08-19T02:40:11;101655.22;;;19.40;70.20
17936;BME280;9093;52.062;4.508;2022-08-19T02:42:51;101656.19;;;19.39;70.21
17936;BME280;9093;52.062;4.508;2022-08-19T02:45:35;101659.03;;;19.37;70.25
17936;BME280;9093;52.062;4.508;2022-08-19T02:48:16;101648.06;;;19.39;70.34
17936;BME280;9093;52.062;4.508;2022-08-19T02:50:57;101638.97;;;19.40;70.45
17936;BME280;9093;52.062;4.508;2022-08-19T02:53:37;101637.13;;;19.40;70.60
17936;BME280;9093;52.062;4.508;2022-08-19T02:56:18;101630.84;;;19.40;70.44
17936;BME280;9093;52.062;4.508;2022-08-19T02:58:58;101638.00;;;19.41;70.57
17936;BME280;9093;52.062;4.508;2022-08-19T03:01:41;101628.16;;;19.40;70.38
17936;BME280;9093;52.062;4.508;2022-08-19T03:04:22;101624.47;;;19.41;70.52
17936;BME280;9093;52.062;4.508;2022-08-19T03:07:03;101625.19;;;19.43;70.41
17936;BME280;9093;52.062;4.508;2022-08-19T03:09:43;101626.16;;;19.42;70.66
17936;BME280;9093;52.062;4.508;2022-08-19T03:12:23;101619.03;;;19.41;70.49
17936;BME280;9093;52.062;4.508;2022-08-19T03:15:04;101624.69;;;19.38;70.78
17936;BME280;9093;52.062;4.508;2022-08-19T03:17:45;101627.28;;;19.39;70.77
17936;BME280;9093;52.062;4.508;2022-08-19T03:20:25;101621.97;;;19.38;70.97
17936;BME280;9093;52.062;4.508;2022-08-19T03:23:06;101631.81;;;19.39;70.97
17936;BME280;9093;52.062;4.508;2022-08-19T03:25:47;101629.13;;;19.39;71.00
17936;BME280;9093;52.062;4.508;2022-08-19T03:28:27;101625.66;;;19.37;70.86
17936;BME280;9093;52.062;4.508;2022-08-19T03:31:10;101622.94;;;19.37;70.90
17936;BME280;9093;52.062;4.508;2022-08-19T03:33:51;101621.97;;;19.38;70.99
17936;BME280;9093;52.062;4.508;2022-08-19T03:36:31;101621.22;;;19.36;71.22
17936;BME280;9093;52.062;4.508;2022-08-19T03:39:11;101624.94;;;19.35;71.28
17936;BME280;9093;52.062;4.508;2022-08-19T03:41:52;101621.47;;;19.33;71.24
17936;BME280;9093;52.062;4.508;2022-08-19T03:44:33;101621.22;;;19.36;71.40
17936;BME280;9093;52.062;4.508;2022-08-19T03:47:13;101622.94;;;19.37;71.34
17936;BME280;9093;52.062;4.508;2022-08-19T03:49:56;101619.53;;;19.35;71.29
17936;BME280;9093;52.062;4.508;2022-08-19T03:52:36;101623.44;;;19.31;71.45
17936;BME280;9093;52.062;4.508;2022-08-19T03:55:17;101622.69;;;19.28;71.46
17936;BME280;9093;52.062;4.508;2022-08-19T03:57:58;101630.81;;;19.28;71.69
17936;BME280;9093;52.062;4.508;2022-08-19T04:00:41;101626.25;;;19.29;71.71
17936;BME280;9093;52.062;4.508;2022-08-19T04:03:22;101635.13;;;19.31;71.64
17936;BME280;9093;52.062;4.508;2022-08-19T04:06:09;101637.22;;;19.27;71.68
17936;BME280;9093;52.062;4.508;2022-08-19T04:08:50;101636.47;;;19.25;71.74
17936;BME280;9093;52.062;4.508;2022-08-19T04:11:35;101643.38;;;19.29;71.85
17936;BME280;9093;52.062;4.508;2022-08-19T04:14:17;101637.94;;;19.29;71.76
17936;BME280;9093;52.062;4.508;2022-08-19T04:16:58;101637.94;;;19.29;71.63
17936;BME280;9093;52.062;4.508;2022-08-19T04:19:39;101647.03;;;19.28;71.76
17936;BME280;9093;52.062;4.508;2022-08-19T04:22:19;101635.59;;;19.25;71.79
17936;BME280;9093;52.062;4.508;2022-08-19T04:24:59;101639.28;;;19.24;71.95
17936;BME280;9093;52.062;4.508;2022-08-19T04:27:40;101641.88;;;19.25;72.17
17936;BME280;9093;52.062;4.508;2022-08-19T04:30:23;101641.03;;;19.25;72.09
17936;BME280;9093;52.062;4.508;2022-08-19T04:33:03;101652.09;;;19.22;72.22
17936;BME280;9093;52.062;4.508;2022-08-19T04:35:48;101646.31;;;19.26;72.24
17936;BME280;9093;52.062;4.508;2022-08-19T04:38:28;101645.34;;;19.27;72.25
17936;BME280;9093;52.062;4.508;2022-08-19T04:41:08;101641.63;;;19.28;72.53
17936;BME280;9093;52.062;4.508;2022-08-19T04:44:07;101643.13;;;19.33;72.30
17936;BME280;9093;52.062;4.508;2022-08-19T04:46:48;101643.75;;;19.36;72.25
17936;BME280;9093;52.062;4.508;2022-08-19T04:49:29;101639.47;;;19.34;72.52
17936;BME280;9093;52.062;4.508;2022-08-19T04:52:09;101637.47;;;19.36;72.62
17936;BME280;9093;52.062;4.508;2022-08-19T04:54:50;101639.94;;;19.39;72.60
17936;BME280;9093;52.062;4.508;2022-08-19T04:57:30;101638.97;;;19.40;72.71
17936;BME280;9093;52.062;4.508;2022-08-19T05:00:10;101643.63;;;19.38;72.94
17936;BME280;9093;52.062;4.508;2022-08-19T05:02:50;101646.84;;;19.43;72.97
17936;BME280;9093;52.062;4.508;2022-08-19T05:05:31;101656.25;;;19.50;72.89
17936;BME280;9093;52.062;4.508;2022-08-19T05:08:12;101650.59;;;19.53;72.91
17936;BME280;9093;52.062;4.508;2022-08-19T05:10:52;101649.25;;;19.58;72.78
17936;BME280;9093;52.062;4.508;2022-08-19T05:13:32;101654.41;;;19.61;73.02
17936;BME280;9093;52.062;4.508;2022-08-19T05:16:12;101655.28;;;19.62;72.99
17936;BME280;9093;52.062;4.508;2022-08-19T05:18:53;101664.16;;;19.64;73.19
17936;BME280;9093;52.062;4.508;2022-08-19T05:21:52;101663.69;;;19.70;73.07
17936;BME280;9093;52.062;4.508;2022-08-19T05:24:51;101652.09;;;19.68;73.30
17936;BME280;9093;52.062;4.508;2022-08-19T05:27:31;101652.59;;;19.73;73.13
17936;BME280;9093;52.062;4.508;2022-08-19T05:30:12;101652.59;;;19.73;73.38
17936;BME280;9093;52.062;4.508;2022-08-19T05:32:52;101646.94;;;19.76;73.66
17936;BME280;9093;52.062;4.508;2022-08-19T05:35:32;101647.53;;;19.80;73.61
17936;BME280;9093;52.062;4.508;2022-08-19T05:38:13;101641.88;;;19.83;73.52
17936;BME280;9093;52.062;4.508;2022-08-19T05:40:53;101645.34;;;19.85;73.64
17936;BME280;9093;52.062;4.508;2022-08-19T05:43:33;101642.00;;;19.81;73.93
17936;BME280;9093;52.062;4.508;2022-08-19T05:46:17;101642.13;;;19.80;73.88
17936;BME280;9093;52.062;4.508;2022-08-19T05:48:58;101642.38;;;19.77;74.05
17936;BME280;9093;52.062;4.508;2022-08-19T05:51:38;101635.00;;;19.79;74.21
17936;BME280;9093;52.062;4.508;2022-08-19T05:54:18;101642.00;;;19.81;74.37
17936;BME280;9093;52.062;4.508;2022-08-19T05:57:00;101646.22;;;19.85;74.25
17936;BME280;9093;52.062;4.508;2022-08-19T05:59:40;101649.41;;;19.90;74.16
17936;BME280;9093;52.062;4.508;2022-08-19T06:02:21;101644.72;;;19.92;74.13
17936;BME280;9093;52.062;4.508;2022-08-19T06:05:03;101639.66;;;19.99;74.09
17936;BME280;9093;52.062;4.508;2022-08-19T06:07:43;101645.59;;;20.04;73.98
17936;BME280;9093;52.062;4.508;2022-08-19T06:10:24;101640.88;;;20.06;74.12
17936;BME280;9093;52.062;4.508;2022-08-19T06:13:05;101643.38;;;20.09;74.20
17936;BME280;9093;52.062;4.508;2022-08-19T06:15:46;101647.66;;;20.12;74.17
17936;BME280;9093;52.062;4.508;2022-08-19T06:18:26;101652.22;;;20.11;74.11
17936;BME280;9093;52.062;4.508;2022-08-19T06:21:07;101647.94;;;20.08;74.31
17936;BME280;9093;52.062;4.508;2022-08-19T06:23:48;101652.22;;;20.11;74.58
17936;BME280;9093;52.062;4.508;2022-08-19T06:26:28;101652.84;;;20.15;74.67
17936;BME280;9093;52.062;4.508;2022-08-19T06:29:09;101652.59;;;20.18;74.51
17936;BME280;9093;52.062;4.508;2022-08-19T06:31:51;101649.75;;;20.19;74.63
17936;BME280;9093;52.062;4.508;2022-08-19T06:34:32;101644.22;;;20.21;74.52
17936;BME280;9093;52.062;4.508;2022-08-19T06:37:13;101639.53;;;20.23;74.69
17936;BME280;9093;52.062;4.508;2022-08-19T06:39:53;101647.28;;;20.27;74.70
17936;BME280;9093;52.062;4.508;2022-08-19T06:42:34;101654.09;;;20.33;74.53
17936;BME280;9093;52.062;4.508;2022-08-19T06:45:14;101654.84;;;20.35;74.67
17936;BME280;9093;52.062;4.508;2022-08-19T06:47:54;101650.88;;;20.39;74.85
17936;BME280;9093;52.062;4.508;2022-08-19T06:50:35;101658.50;;;20.45;74.74
17936;BME280;9093;52.062;4.508;2022-08-19T06:53:17;101653.56;;;20.50;74.65
17936;BME280;9093;52.062;4.508;2022-08-19T06:55:59;101650.50;;;20.55;74.57
17936;BME280;9093;52.062;4.508;2022-08-19T06:58:42;101659.97;;;20.60;74.75
17936;BME280;9093;52.062;4.508;2022-08-19T07:01:22;101656.00;;;20.64;74.65
17936;BME280;9093;52.062;4.508;2022-08-19T07:04:03;101649.94;;;20.72;74.81
17936;BME280;9093;52.062;4.508;2022-08-19T07:06:43;101643.88;;;20.79;74.94
17936;BME280;9093;52.062;4.508;2022-08-19T07:09:25;101654.69;;;20.91;74.64
17936;BME280;9093;52.062;4.508;2022-08-19T07:12:06;101651.16;;;21.00;74.65
17936;BME280;9093;52.062;4.508;2022-08-19T07:14:47;101670.91;;;21.02;74.58
17936;BME280;9093;52.062;4.508;2022-08-19T07:17:28;101668.94;;;21.04;74.61
17936;BME280;9093;52.062;4.508;2022-08-19T07:20:09;101670.28;;;21.09;74.75
17936;BME280;9093;52.062;4.508;2022-08-19T07:22:50;101679.28;;;21.10;74.77
17936;BME280;9093;52.062;4.508;2022-08-19T07:25:30;101683.22;;;21.06;74.88
17936;BME280;9093;52.062;4.508;2022-08-19T07:28:11;101688.66;;;21.06;74.94
17936;BME280;9093;52.062;4.508;2022-08-19T07:30:51;101670.41;;;21.08;75.11
17936;BME280;9093;52.062;4.508;2022-08-19T07:33:32;101679.00;;;21.13;74.94
17936;BME280;9093;52.062;4.508;2022-08-19T07:36:13;101676.09;;;21.16;75.13
17936;BME280;9093;52.062;4.508;2022-08-19T07:38:54;101671.09;;;21.21;74.86
17936;BME280;9093;52.062;4.508;2022-08-19T07:41:35;101667.75;;;21.29;74.70
17936;BME280;9093;52.062;4.508;2022-08-19T07:44:17;101671.66;;;21.36;74.92
17936;BME280;9093;52.062;4.508;2022-08-19T07:46:58;101677.56;;;21.41;74.82
17936;BME280;9093;52.062;4.508;2022-08-19T07:49:39;101674.56;;;21.44;74.85
17936;BME280;9093;52.062;4.508;2022-08-19T07:52:20;101676.44;;;21.43;74.96
17936;BME280;9093;52.062;4.508;2022-08-19T07:55:00;101676.16;;;21.46;75.07
17936;BME280;9093;52.062;4.508;2022-08-19T07:57:43;101673.19;;;21.49;75.11
17936;BME280;9093;52.062;4.508;2022-08-19T08:00:24;101677.34;;;21.53;74.94
17936;BME280;9093;52.062;4.508;2022-08-19T08:03:04;101684.53;;;21.54;75.09
17936;BME280;9093;52.062;4.508;2022-08-19T08:05:45;101691.53;;;21.57;74.84
17936;BME280;9093;52.062;4.508;2022-08-19T08:08:44;101694.84;;;21.60;74.99
17936;BME280;9093;52.062;4.508;2022-08-19T08:11:51;101689.88;;;21.65;74.95
17936;BME280;9093;52.062;4.508;2022-08-19T08:14:33;101688.03;;;21.66;74.88
17936;BME280;9093;52.062;4.508;2022-08-19T08:17:15;101689.63;;;21.69;75.18
17936;BME280;9093;52.062;4.508;2022-08-19T08:19:57;101686.38;;;21.75;74.92
17936;BME280;9093;52.062;4.508;2022-08-19T08:22:37;101694.97;;;21.80;75.16
17936;BME280;9093;52.062;4.508;2022-08-19T08:25:41;101697.88;;;21.88;74.69
17936;BME280;9093;52.062;4.508;2022-08-19T08:28:21;101701.06;;;21.93;74.78
17936;BME280;9093;52.062;4.508;2022-08-19T08:31:02;101699.81;;;21.97;74.90
17936;BME280;9093;52.062;4.508;2022-08-19T08:33:42;101702.53;;;21.97;74.84
17936;BME280;9093;52.062;4.508;2022-08-19T08:36:22;101710.44;;;22.00;75.08
17936;BME280;9093;52.062;4.508;2022-08-19T08:39:05;101710.16;;;22.03;75.16
17936;BME280;9093;52.062;4.508;2022-08-19T08:41:58;101709.16;;;22.04;75.09
17936;BME280;9093;52.062;4.508;2022-08-19T08:44:58;101705.72;;;22.02;74.89
17936;BME280;9093;52.062;4.508;2022-08-19T08:47:38;101710.44;;;22.00;75.31
17936;BME280;9093;52.062;4.508;2022-08-19T08:50:21;101703.00;;;22.02;75.13
17936;BME280;9093;52.062;4.508;2022-08-19T08:53:04;101714.31;;;22.07;75.13
17936;BME280;9093;52.062;4.508;2022-08-19T08:55:45;101704.63;;;22.14;75.09
17936;BME280;9093;52.062;4.508;2022-08-19T08:58:27;101705.81;;;22.21;74.68
17936;BME280;9093;52.062;4.508;2022-08-19T09:01:09;101703.25;;;22.29;74.61
17936;BME280;9093;52.062;4.508;2022-08-19T09:03:51;101702.72;;;22.35;74.83
17936;BME280;9093;52.062;4.508;2022-08-19T09:06:45;101706.88;;;22.39;74.63
17936;BME280;9093;52.062;4.508;2022-08-19T09:09:37;101710.19;;;22.43;74.49
17936;BME280;9093;52.062;4.508;2022-08-19T09:12:53;101713.63;;;22.45;74.35
17936;BME280;9093;52.062;4.508;2022-08-19T09:15:28;101710.75;;;22.46;74.37
17936;BME280;9093;52.062;4.508;2022-08-19T09:18:10;101711.91;;;22.44;74.18
17936;BME280;9093;52.062;4.508;2022-08-19T09:20:50;101709.03;;;22.45;74.09
17936;BME280;9093;52.062;4.508;2022-08-19T09:23:30;101711.50;;;22.49;74.28
17936;BME280;9093;52.062;4.508;2022-08-19T09:26:12;101714.22;;;22.49;74.19
17936;BME280;9093;52.062;4.508;2022-08-19T09:28:53;101710.63;;;22.48;74.10
17936;BME280;9093;52.062;4.508;2022-08-19T09:31:34;101720.66;;;22.48;74.04
17936;BME280;9093;52.062;4.508;2022-08-19T09:34:14;101725.38;;;22.45;73.92
17936;BME280;9093;52.062;4.508;2022-08-19T09:36:55;101721.22;;;22.41;74.07
17936;BME280;9093;52.062;4.508;2022-08-19T09:39:38;101729.63;;;22.38;73.99
17936;BME280;9093;52.062;4.508;2022-08-19T09:42:20;101731.34;;;22.39;74.07
17936;BME280;9093;52.062;4.508;2022-08-19T09:45:01;101726.53;;;22.43;73.89
17936;BME280;9093;52.062;4.508;2022-08-19T09:47:42;101729.81;;;22.46;74.01
17936;BME280;9093;52.062;4.508;2022-08-19T09:50:23;101733.13;;;22.50;73.88
17936;BME280;9093;52.062;4.508;2022-08-19T09:53:03;101738.41;;;22.52;73.57
17936;BME280;9093;52.062;4.508;2022-08-19T09:55:46;101735.84;;;22.50;73.57
17936;BME280;9093;52.062;4.508;2022-08-19T09:58:26;101730.25;;;22.52;73.76
17936;BME280;9093;52.062;4.508;2022-08-19T10:01:07;101739.16;;;22.54;73.69
17936;BME280;9093;52.062;4.508;2022-08-19T10:03:49;101736.88;;;22.59;73.42
17936;BME280;9093;52.062;4.508;2022-08-19T10:06:30;101731.59;;;22.67;73.39
17936;BME280;9093;52.062;4.508;2022-08-19T10:09:13;101730.09;;;22.74;73.36
17936;BME280;9093;52.062;4.508;2022-08-19T10:11:54;101724.06;;;22.80;73.20
17936;BME280;9093;52.062;4.508;2022-08-19T10:14:34;101734.41;;;22.86;73.06
17936;BME280;9093;52.062;4.508;2022-08-19T10:17:14;101730.56;;;22.89;73.32
17936;BME280;9093;52.062;4.508;2022-08-19T10:19:54;101733.84;;;22.92;73.02
17936;BME280;9093;52.062;4.508;2022-08-19T10:22:34;101746.91;;;22.98;72.91
17936;BME280;9093;52.062;4.508;2022-08-19T10:25:17;101734.44;;;23.05;72.69
17936;BME280;9093;52.062;4.508;2022-08-19T10:27:57;101741.03;;;23.12;72.58
17936;BME280;9093;52.062;4.508;2022-08-19T10:30:38;101726.13;;;23.16;72.68
17936;BME280;9093;52.062;4.508;2022-08-19T10:33:18;101726.13;;;23.16;72.46
17936;BME280;9093;52.062;4.508;2022-08-19T10:35:59;101726.84;;;23.18;72.55
17936;BME280;9093;52.062;4.508;2022-08-19T10:38:40;101727.28;;;23.23;72.10
17936;BME280;9093;52.062;4.508;2022-08-19T10:41:21;101726.72;;;23.30;71.92
17936;BME280;9093;52.062;4.508;2022-08-19T10:44:04;101725.28;;;23.35;71.96
17936;BME280;9093;52.062;4.508;2022-08-19T10:46:45;101720.81;;;23.44;71.60
17936;BME280;9093;52.062;4.508;2022-08-19T10:49:26;101726.16;;;23.45;71.66
17936;BME280;9093;52.062;4.508;2022-08-19T10:52:07;101719.25;;;23.41;71.38
17936;BME280;9093;52.062;4.508;2022-08-19T10:55:06;101719.81;;;23.35;71.49
17936;BME280;9093;52.062;4.508;2022-08-19T10:58:09;101727.00;;;23.27;71.77
17936;BME280;9093;52.062;4.508;2022-08-19T11:00:53;101726.72;;;23.20;71.65
17936;BME280;9093;52.062;4.508;2022-08-19T11:03:33;101728.84;;;23.16;71.79
17936;BME280;9093;52.062;4.508;2022-08-19T11:06:14;101729.84;;;23.15;71.54
17936;BME280;9093;52.062;4.508;2022-08-19T11:08:54;101728.13;;;23.14;71.26
17936;BME280;9093;52.062;4.508;2022-08-19T11:11:35;101725.41;;;23.14;71.23
17936;BME280;9093;52.062;4.508;2022-08-19T11:14:20;101727.84;;;23.17;71.12
17936;BME280;9093;52.062;4.508;2022-08-19T11:17:02;101723.41;;;23.16;71.09
17936;BME280;9093;52.062;4.508;2022-08-19T11:19:42;101732.00;;;23.21;71.32
17936;BME280;9093;52.062;4.508;2022-08-19T11:22:22;101732.47;;;23.27;71.26
17936;BME280;9093;52.062;4.508;2022-08-19T11:25:02;101741.31;;;23.29;70.98
17936;BME280;9093;52.062;4.508;2022-08-19T11:27:43;101727.84;;;23.27;70.94
17936;BME280;9093;52.062;4.508;2022-08-19T11:30:24;101734.16;;;23.27;70.72
17936;BME280;9093;52.062;4.508;2022-08-19T11:33:04;101735.75;;;23.30;71.02
17936;BME280;9093;52.062;4.508;2022-08-19T11:35:45;101731.28;;;23.29;70.97
17936;BME280;9093;52.062;4.508;2022-08-19T11:38:25;101728.88;;;23.26;70.97
17936;BME280;9093;52.062;4.508;2022-08-19T11:41:06;101735.31;;;23.25;71.15
17936;BME280;9093;52.062;4.508;2022-08-19T11:43:47;101727.28;;;23.23;71.08
17936;BME280;9093;52.062;4.508;2022-08-19T11:46:27;101733.03;;;23.20;71.08
17936;BME280;9093;52.062;4.508;2022-08-19T11:49:09;101734.16;;;23.18;70.92
17936;BME280;9093;52.062;4.508;2022-08-19T11:51:49;101744.19;;;23.17;70.96
17936;BME280;9093;52.062;4.508;2022-08-19T11:54:30;101743.63;;;23.14;70.96
17936;BME280;9093;52.062;4.508;2022-08-19T11:57:10;101742.59;;;23.05;71.11
17936;BME280;9093;52.062;4.508;2022-08-19T11:59:51;101740.44;;;22.99;71.10
17936;BME280;9093;52.062;4.508;2022-08-19T12:02:32;101737.88;;;22.98;70.89
17936;BME280;9093;52.062;4.508;2022-08-19T12:05:13;101742.44;;;22.97;70.69
17936;BME280;9093;52.062;4.508;2022-08-19T12:07:53;101747.19;;;22.95;70.85
17936;BME280;9093;52.062;4.508;2022-08-19T12:10:34;101744.47;;;22.95;71.08
17936;BME280;9093;52.062;4.508;2022-08-19T12:13:14;101744.16;;;22.98;70.90
17936;BME280;9093;52.062;4.508;2022-08-19T12:15:58;101739.44;;;23.00;70.91
17936;BME280;9093;52.062;4.508;2022-08-19T12:18:39;101737.59;;;23.01;70.83
17936;BME280;9093;52.062;4.508;2022-08-19T12:21:27;101736.44;;;23.03;70.80
17936;BME280;9093;52.062;4.508;2022-08-19T12:24:08;101737.72;;;23.09;70.74
17936;BME280;9093;52.062;4.508;2022-08-19T12:26:48;101733.56;;;23.14;70.34
17936;BME280;9093;52.062;4.508;2022-08-19T12:29:29;101734.44;;;23.15;70.44
17936;BME280;9093;52.062;4.508;2022-08-19T12:32:09;101733.56;;;23.14;70.39
17936;BME280;9093;52.062;4.508;2022-08-19T12:34:50;101724.41;;;23.15;70.64
17936;BME280;9093;52.062;4.508;2022-08-19T12:37:30;101727.00;;;23.17;70.50
17936;BME280;9093;52.062;4.508;2022-08-19T12:40:12;101731.44;;;23.18;70.76
17936;BME280;9093;52.062;4.508;2022-08-19T12:42:54;101718.09;;;23.24;70.98
17936;BME280;9093;52.062;4.508;2022-08-19T12:45:34;101722.53;;;23.35;70.64
17936;BME280;9093;52.062;4.508;2022-08-19T12:48:15;101723.00;;;23.50;70.53
17936;BME280;9093;52.062;4.508;2022-08-19T12:50:55;101722.25;;;23.67;70.43
17936;BME280;9093;52.062;4.508;2022-08-19T12:53:35;101723.25;;;23.76;70.37
17936;BME280;9093;52.062;4.508;2022-08-19T12:56:16;101718.09;;;23.73;70.87
17936;BME280;9093;52.062;4.508;2022-08-19T12:58:57;101717.81;;;23.76;70.97
17936;BME280;9093;52.062;4.508;2022-08-19T13:01:37;101720.09;;;23.80;70.66
17936;BME280;9093;52.062;4.508;2022-08-19T13:04:18;101719.22;;;23.89;70.65
17936;BME280;9093;52.062;4.508;2022-08-19T13:06:58;101718.63;;;23.95;70.55
17936;BME280;9093;52.062;4.508;2022-08-19T13:09:38;101720.84;;;24.10;70.12
17936;BME280;9093;52.062;4.508;2022-08-19T13:12:21;101724.16;;;24.23;69.91
17936;BME280;9093;52.062;4.508;2022-08-19T13:15:01;101721.53;;;24.31;69.94
17936;BME280;9093;52.062;4.508;2022-08-19T13:17:41;101720.22;;;24.35;69.82
17936;BME280;9093;52.062;4.508;2022-08-19T13:20:22;101719.59;;;24.41;69.45
17936;BME280;9093;52.062;4.508;2022-08-19T13:23:02;101709.81;;;24.48;69.71
17936;BME280;9093;52.062;4.508;2022-08-19T13:25:42;101713.66;;;24.55;69.43
17936;BME280;9093;52.062;4.508;2022-08-19T13:28:23;101704.00;;;24.61;69.78
17936;BME280;9093;52.062;4.508;2022-08-19T13:31:03;101709.81;;;24.75;69.19
17936;BME280;9093;52.062;4.508;2022-08-19T13:34:02;101710.91;;;24.82;68.85
17936;BME280;9093;52.062;4.508;2022-08-19T13:36:42;101701.91;;;24.72;68.73
17936;BME280;9093;52.062;4.508;2022-08-19T13:39:22;101707.97;;;24.66;69.24
17936;BME280;9093;52.062;4.508;2022-08-19T13:42:03;101704.00;;;24.61;69.38
17936;BME280;9093;52.062;4.508;2022-08-19T13:44:44;101702.59;;;24.57;69.11
17936;BME280;9093;52.062;4.508;2022-08-19T13:47:26;101700.72;;;24.57;68.83
17936;BME280;9093;52.062;4.508;2022-08-19T13:50:06;101703.59;;;24.56;69.13
17936;BME280;9093;52.062;4.508;2022-08-19T13:52:47;101706.06;;;24.49;69.07
17936;BME280;9093;52.062;4.508;2022-08-19T13:55:27;101702.03;;;24.53;68.70
17936;BME280;9093;52.062;4.508;2022-08-19T13:58:08;101697.63;;;24.70;68.40
17936;BME280;9093;52.062;4.508;2022-08-19T14:00:48;101701.59;;;24.75;67.88
17936;BME280;9093;52.062;4.508;2022-08-19T14:03:30;101699.66;;;24.85;67.79
17936;BME280;9093;52.062;4.508;2022-08-19T14:06:10;101701.72;;;24.83;67.94
17936;BME280;9093;52.062;4.508;2022-08-19T14:08:50;101689.97;;;24.73;68.16
17936;BME280;9093;52.062;4.508;2022-08-19T14:11:31;101694.03;;;24.69;68.02
17936;BME280;9093;52.062;4.508;2022-08-19T14:14:11;101693.88;;;24.71;67.97
17936;BME280;9093;52.062;4.508;2022-08-19T14:16:52;101691.78;;;24.82;68.00